Hovedside
METAR-TAF:

METAR-TAF

Lufthavner :

Enontekiö lufthavn

Enontekis, Finland

breddegrad: 68-21-52N, lengdegrad: 023-25-39E, høyde over havet: 308 m

Gjeldene værobservasjon

Denne rapporten ble laget for 34 minutter siden, klokken 04:50 UTC
Vind 7 kt fra Sørvest
Temperatur -9°C
Luftfuktighet 92%
Trykk 1012 hPa
Sikt 10 km eller mer
ingen skyer under 1500 m og ingen bygeskyer

METAR: EFET 220450Z AUTO 23007KT CAVOK M09/M10 Q1012

Tid: 07:24 (05:24 UTC)


TAF: fraværende

Værobservasjoner og værvarsel for over 4000 flyplasser (METAR- og TAF-rapporter).

Tilgjengelige stasjoner er representert av de røde og gule prikkene på kartet.

Hold musepekeren over prikken for å se navnet på stasjonen.

Klikk så for å se værobservasjoner og -varsler.

For å forandre kartet kan du klikke på den grønne knappen med svart kryss for å zoome inn, på den grønne knappen med strek for å zoome ut, eller på de grønne pilene for å se tilstøtende kart.


METAR-TAF: